sensor_id;sensor_type;location;lat;lon;timestamp;P1;durP1;ratioP1;P2;durP2;ratioP2
17864;SDS011;9058;52.018;4.202;2023-06-14T00:00:31;5.40;;;2.92;;
17864;SDS011;9058;52.018;4.202;2023-06-14T00:02:59;4.50;;;2.58;;
17864;SDS011;9058;52.018;4.202;2023-06-14T00:05:25;9.63;;;3.72;;
17864;SDS011;9058;52.018;4.202;2023-06-14T00:07:54;3.03;;;2.28;;
17864;SDS011;9058;52.018;4.202;2023-06-14T00:10:22;4.90;;;3.00;;
17864;SDS011;9058;52.018;4.202;2023-06-14T00:12:48;9.70;;;2.90;;
17864;SDS011;9058;52.018;4.202;2023-06-14T00:15:15;3.83;;;2.80;;
17864;SDS011;9058;52.018;4.202;2023-06-14T00:17:42;5.10;;;3.03;;
17864;SDS011;9058;52.018;4.202;2023-06-14T00:20:12;4.38;;;2.85;;
17864;SDS011;9058;52.018;4.202;2023-06-14T00:22:38;4.95;;;3.00;;
17864;SDS011;9058;52.018;4.202;2023-06-14T00:25:05;3.72;;;2.72;;
17864;SDS011;9058;52.018;4.202;2023-06-14T00:27:35;5.78;;;2.83;;
17864;SDS011;9058;52.018;4.202;2023-06-14T00:30:02;7.13;;;3.40;;
17864;SDS011;9058;52.018;4.202;2023-06-14T00:32:28;5.40;;;3.03;;
17864;SDS011;9058;52.018;4.202;2023-06-14T00:34:54;5.22;;;3.17;;
17864;SDS011;9058;52.018;4.202;2023-06-14T00:37:22;5.13;;;2.90;;
17864;SDS011;9058;52.018;4.202;2023-06-14T00:39:48;4.07;;;3.17;;
17864;SDS011;9058;52.018;4.202;2023-06-14T00:42:22;5.30;;;2.55;;
17864;SDS011;9058;52.018;4.202;2023-06-14T00:44:51;6.40;;;3.20;;
17864;SDS011;9058;52.018;4.202;2023-06-14T00:47:17;5.45;;;3.15;;
17864;SDS011;9058;52.018;4.202;2023-06-14T00:49:45;7.45;;;3.22;;
17864;SDS011;9058;52.018;4.202;2023-06-14T00:52:11;4.65;;;2.90;;
17864;SDS011;9058;52.018;4.202;2023-06-14T00:54:39;6.68;;;3.10;;
17864;SDS011;9058;52.018;4.202;2023-06-14T00:57:07;4.03;;;3.15;;
17864;SDS011;9058;52.018;4.202;2023-06-14T00:59:33;4.65;;;3.28;;
17864;SDS011;9058;52.018;4.202;2023-06-14T01:02:01;6.13;;;3.25;;
17864;SDS011;9058;52.018;4.202;2023-06-14T01:04:27;7.93;;;3.00;;
17864;SDS011;9058;52.018;4.202;2023-06-14T01:06:55;9.45;;;3.30;;
17864;SDS011;9058;52.018;4.202;2023-06-14T01:09:29;9.48;;;3.42;;
17864;SDS011;9058;52.018;4.202;2023-06-14T01:11:58;4.32;;;3.22;;
17864;SDS011;9058;52.018;4.202;2023-06-14T01:14:26;8.80;;;3.33;;
17864;SDS011;9058;52.018;4.202;2023-06-14T01:16:53;7.15;;;3.33;;
17864;SDS011;9058;52.018;4.202;2023-06-14T01:19:22;5.38;;;3.08;;
17864;SDS011;9058;52.018;4.202;2023-06-14T01:21:50;3.58;;;2.70;;
17864;SDS011;9058;52.018;4.202;2023-06-14T01:24:19;7.65;;;3.13;;
17864;SDS011;9058;52.018;4.202;2023-06-14T01:26:50;6.38;;;3.28;;
17864;SDS011;9058;52.018;4.202;2023-06-14T01:29:21;3.72;;;3.17;;
17864;SDS011;9058;52.018;4.202;2023-06-14T01:31:48;7.13;;;3.13;;
17864;SDS011;9058;52.018;4.202;2023-06-14T01:34:14;5.25;;;3.13;;
17864;SDS011;9058;52.018;4.202;2023-06-14T01:36:41;5.68;;;3.08;;
17864;SDS011;9058;52.018;4.202;2023-06-14T01:39:09;4.35;;;2.70;;
17864;SDS011;9058;52.018;4.202;2023-06-14T01:41:37;8.43;;;3.22;;
17864;SDS011;9058;52.018;4.202;2023-06-14T01:44:04;5.70;;;2.92;;
17864;SDS011;9058;52.018;4.202;2023-06-14T01:46:31;5.85;;;3.28;;
17864;SDS011;9058;52.018;4.202;2023-06-14T01:48:57;4.60;;;3.22;;
17864;SDS011;9058;52.018;4.202;2023-06-14T01:51:25;5.45;;;3.38;;
17864;SDS011;9058;52.018;4.202;2023-06-14T01:53:51;7.50;;;3.00;;
17864;SDS011;9058;52.018;4.202;2023-06-14T01:56:17;10.57;;;2.80;;
17864;SDS011;9058;52.018;4.202;2023-06-14T01:58:46;4.47;;;2.92;;
17864;SDS011;9058;52.018;4.202;2023-06-14T02:01:14;7.40;;;3.65;;
17864;SDS011;9058;52.018;4.202;2023-06-14T02:03:42;5.53;;;2.67;;
17864;SDS011;9058;52.018;4.202;2023-06-14T02:06:09;7.75;;;3.08;;
17864;SDS011;9058;52.018;4.202;2023-06-14T02:08:37;9.32;;;3.47;;
17864;SDS011;9058;52.018;4.202;2023-06-14T02:11:03;6.63;;;3.08;;
17864;SDS011;9058;52.018;4.202;2023-06-14T02:13:30;5.68;;;2.97;;
17864;SDS011;9058;52.018;4.202;2023-06-14T02:15:58;5.07;;;2.63;;
17864;SDS011;9058;52.018;4.202;2023-06-14T02:18:25;5.68;;;3.03;;
17864;SDS011;9058;52.018;4.202;2023-06-14T02:20:51;11.25;;;3.53;;
17864;SDS011;9058;52.018;4.202;2023-06-14T02:23:17;5.68;;;3.10;;
17864;SDS011;9058;52.018;4.202;2023-06-14T02:25:44;3.60;;;3.00;;
17864;SDS011;9058;52.018;4.202;2023-06-14T02:28:11;7.32;;;2.90;;
17864;SDS011;9058;52.018;4.202;2023-06-14T02:30:37;4.25;;;2.70;;
17864;SDS011;9058;52.018;4.202;2023-06-14T02:33:05;6.53;;;3.40;;
17864;SDS011;9058;52.018;4.202;2023-06-14T02:35:31;8.80;;;3.25;;
17864;SDS011;9058;52.018;4.202;2023-06-14T02:37:58;4.63;;;2.90;;
17864;SDS011;9058;52.018;4.202;2023-06-14T02:40:25;8.40;;;3.05;;
17864;SDS011;9058;52.018;4.202;2023-06-14T02:42:52;6.70;;;3.35;;
17864;SDS011;9058;52.018;4.202;2023-06-14T02:45:20;10.70;;;3.00;;
17864;SDS011;9058;52.018;4.202;2023-06-14T02:47:47;6.07;;;3.17;;
17864;SDS011;9058;52.018;4.202;2023-06-14T02:50:15;4.10;;;2.83;;
17864;SDS011;9058;52.018;4.202;2023-06-14T02:52:42;4.80;;;3.20;;
17864;SDS011;9058;52.018;4.202;2023-06-14T02:55:09;7.20;;;3.05;;
17864;SDS011;9058;52.018;4.202;2023-06-14T02:57:38;4.57;;;2.70;;
17864;SDS011;9058;52.018;4.202;2023-06-14T03:00:05;6.25;;;2.92;;
17864;SDS011;9058;52.018;4.202;2023-06-14T03:02:34;9.55;;;3.08;;
17864;SDS011;9058;52.018;4.202;2023-06-14T03:05:01;8.82;;;2.83;;
17864;SDS011;9058;52.018;4.202;2023-06-14T03:07:33;8.90;;;3.20;;
17864;SDS011;9058;52.018;4.202;2023-06-14T03:10:00;3.88;;;2.83;;
17864;SDS011;9058;52.018;4.202;2023-06-14T03:12:26;4.93;;;3.30;;
17864;SDS011;9058;52.018;4.202;2023-06-14T03:14:52;7.03;;;3.00;;
17864;SDS011;9058;52.018;4.202;2023-06-14T03:17:21;3.95;;;2.60;;
17864;SDS011;9058;52.018;4.202;2023-06-14T03:19:49;4.30;;;2.72;;
17864;SDS011;9058;52.018;4.202;2023-06-14T03:22:15;8.32;;;3.33;;
17864;SDS011;9058;52.018;4.202;2023-06-14T03:24:43;6.65;;;3.08;;
17864;SDS011;9058;52.018;4.202;2023-06-14T03:27:10;6.45;;;3.10;;
17864;SDS011;9058;52.018;4.202;2023-06-14T03:29:37;5.57;;;2.97;;
17864;SDS011;9058;52.018;4.202;2023-06-14T03:32:04;5.40;;;3.20;;
17864;SDS011;9058;52.018;4.202;2023-06-14T03:34:31;5.20;;;3.15;;
17864;SDS011;9058;52.018;4.202;2023-06-14T03:36:57;4.22;;;3.08;;
17864;SDS011;9058;52.018;4.202;2023-06-14T03:39:24;8.13;;;2.95;;
17864;SDS011;9058;52.018;4.202;2023-06-14T03:41:53;3.85;;;2.70;;
17864;SDS011;9058;52.018;4.202;2023-06-14T03:44:19;4.70;;;2.85;;
17864;SDS011;9058;52.018;4.202;2023-06-14T03:46:45;5.93;;;2.70;;
17864;SDS011;9058;52.018;4.202;2023-06-14T03:49:12;5.20;;;2.80;;
17864;SDS011;9058;52.018;4.202;2023-06-14T03:51:38;5.10;;;2.70;;
17864;SDS011;9058;52.018;4.202;2023-06-14T03:54:05;6.05;;;3.40;;
17864;SDS011;9058;52.018;4.202;2023-06-14T03:56:32;3.22;;;2.40;;
17864;SDS011;9058;52.018;4.202;2023-06-14T03:59:01;4.65;;;2.97;;
17864;SDS011;9058;52.018;4.202;2023-06-14T04:01:27;5.10;;;3.22;;
17864;SDS011;9058;52.018;4.202;2023-06-14T04:03:55;7.55;;;3.22;;
17864;SDS011;9058;52.018;4.202;2023-06-14T04:06:22;4.28;;;2.80;;
17864;SDS011;9058;52.018;4.202;2023-06-14T04:08:50;6.55;;;2.83;;
17864;SDS011;9058;52.018;4.202;2023-06-14T04:11:16;7.07;;;3.05;;
17864;SDS011;9058;52.018;4.202;2023-06-14T04:13:42;5.80;;;3.15;;
17864;SDS011;9058;52.018;4.202;2023-06-14T04:16:10;4.75;;;2.58;;
17864;SDS011;9058;52.018;4.202;2023-06-14T04:18:37;7.35;;;2.90;;
17864;SDS011;9058;52.018;4.202;2023-06-14T04:21:03;8.00;;;2.70;;
17864;SDS011;9058;52.018;4.202;2023-06-14T04:23:31;3.55;;;2.47;;
17864;SDS011;9058;52.018;4.202;2023-06-14T04:25:58;3.45;;;2.67;;
17864;SDS011;9058;52.018;4.202;2023-06-14T04:28:27;4.13;;;2.58;;
17864;SDS011;9058;52.018;4.202;2023-06-14T04:30:54;5.25;;;2.60;;
17864;SDS011;9058;52.018;4.202;2023-06-14T04:33:22;8.32;;;2.75;;
17864;SDS011;9058;52.018;4.202;2023-06-14T04:35:50;7.32;;;2.58;;
17864;SDS011;9058;52.018;4.202;2023-06-14T04:38:19;5.10;;;2.67;;
17864;SDS011;9058;52.018;4.202;2023-06-14T04:40:49;4.65;;;2.60;;
17864;SDS011;9058;52.018;4.202;2023-06-14T04:43:18;4.30;;;2.63;;
17864;SDS011;9058;52.018;4.202;2023-06-14T04:45:51;7.60;;;2.85;;
17864;SDS011;9058;52.018;4.202;2023-06-14T04:48:19;5.03;;;2.72;;
17864;SDS011;9058;52.018;4.202;2023-06-14T04:50:47;2.65;;;2.42;;
17864;SDS011;9058;52.018;4.202;2023-06-14T04:53:13;5.32;;;2.53;;
17864;SDS011;9058;52.018;4.202;2023-06-14T04:55:40;7.40;;;2.70;;
17864;SDS011;9058;52.018;4.202;2023-06-14T04:58:09;4.90;;;2.33;;
17864;SDS011;9058;52.018;4.202;2023-06-14T05:00:37;3.42;;;2.65;;
17864;SDS011;9058;52.018;4.202;2023-06-14T05:03:04;4.88;;;2.90;;
17864;SDS011;9058;52.018;4.202;2023-06-14T05:05:30;4.57;;;2.10;;
17864;SDS011;9058;52.018;4.202;2023-06-14T05:07:59;4.40;;;2.47;;
17864;SDS011;9058;52.018;4.202;2023-06-14T05:10:25;6.40;;;2.50;;
17864;SDS011;9058;52.018;4.202;2023-06-14T05:12:52;3.95;;;2.92;;
17864;SDS011;9058;52.018;4.202;2023-06-14T05:15:19;7.07;;;2.58;;
17864;SDS011;9058;52.018;4.202;2023-06-14T05:17:50;4.30;;;2.53;;
17864;SDS011;9058;52.018;4.202;2023-06-14T05:20:20;8.07;;;2.70;;
17864;SDS011;9058;52.018;4.202;2023-06-14T05:22:47;4.35;;;2.55;;
17864;SDS011;9058;52.018;4.202;2023-06-14T05:25:16;5.38;;;2.42;;
17864;SDS011;9058;52.018;4.202;2023-06-14T05:27:43;3.60;;;2.22;;
17864;SDS011;9058;52.018;4.202;2023-06-14T05:30:09;6.68;;;2.85;;
17864;SDS011;9058;52.018;4.202;2023-06-14T05:32:36;5.95;;;2.42;;
17864;SDS011;9058;52.018;4.202;2023-06-14T05:35:02;3.90;;;2.40;;
17864;SDS011;9058;52.018;4.202;2023-06-14T05:37:29;4.28;;;2.70;;
17864;SDS011;9058;52.018;4.202;2023-06-14T05:39:56;6.75;;;2.55;;
17864;SDS011;9058;52.018;4.202;2023-06-14T05:42:24;7.13;;;2.65;;
17864;SDS011;9058;52.018;4.202;2023-06-14T05:44:51;8.18;;;2.80;;
17864;SDS011;9058;52.018;4.202;2023-06-14T05:47:18;6.50;;;2.78;;
17864;SDS011;9058;52.018;4.202;2023-06-14T05:49:44;5.22;;;2.72;;
17864;SDS011;9058;52.018;4.202;2023-06-14T05:52:11;6.65;;;2.75;;
17864;SDS011;9058;52.018;4.202;2023-06-14T05:54:38;5.45;;;3.00;;
17864;SDS011;9058;52.018;4.202;2023-06-14T05:57:06;5.50;;;3.00;;
17864;SDS011;9058;52.018;4.202;2023-06-14T05:59:34;6.28;;;2.33;;
17864;SDS011;9058;52.018;4.202;2023-06-14T06:02:00;4.18;;;2.55;;
17864;SDS011;9058;52.018;4.202;2023-06-14T06:04:26;7.40;;;3.28;;
17864;SDS011;9058;52.018;4.202;2023-06-14T06:06:53;2.60;;;2.40;;
17864;SDS011;9058;52.018;4.202;2023-06-14T06:09:19;4.85;;;2.85;;
17864;SDS011;9058;52.018;4.202;2023-06-14T06:11:46;6.30;;;2.90;;
17864;SDS011;9058;52.018;4.202;2023-06-14T06:14:12;6.55;;;2.58;;
17864;SDS011;9058;52.018;4.202;2023-06-14T06:16:40;3.92;;;2.75;;
17864;SDS011;9058;52.018;4.202;2023-06-14T06:19:06;3.83;;;2.13;;
17864;SDS011;9058;52.018;4.202;2023-06-14T06:21:34;5.13;;;2.70;;
17864;SDS011;9058;52.018;4.202;2023-06-14T06:24:00;7.80;;;2.35;;
17864;SDS011;9058;52.018;4.202;2023-06-14T06:26:28;4.95;;;2.50;;
17864;SDS011;9058;52.018;4.202;2023-06-14T06:28:54;5.18;;;2.80;;
17864;SDS011;9058;52.018;4.202;2023-06-14T06:31:22;4.20;;;2.83;;
17864;SDS011;9058;52.018;4.202;2023-06-14T06:33:50;4.88;;;3.45;;
17864;SDS011;9058;52.018;4.202;2023-06-14T06:36:16;5.13;;;2.85;;
17864;SDS011;9058;52.018;4.202;2023-06-14T06:38:43;5.00;;;2.42;;
17864;SDS011;9058;52.018;4.202;2023-06-14T06:41:09;3.83;;;2.35;;
17864;SDS011;9058;52.018;4.202;2023-06-14T06:43:39;4.07;;;2.50;;
17864;SDS011;9058;52.018;4.202;2023-06-14T06:46:05;4.68;;;2.47;;
17864;SDS011;9058;52.018;4.202;2023-06-14T06:48:31;5.60;;;2.65;;
17864;SDS011;9058;52.018;4.202;2023-06-14T06:50:59;5.57;;;2.45;;
17864;SDS011;9058;52.018;4.202;2023-06-14T06:53:25;3.40;;;2.40;;
17864;SDS011;9058;52.018;4.202;2023-06-14T06:55:52;5.03;;;2.80;;
17864;SDS011;9058;52.018;4.202;2023-06-14T06:58:20;4.60;;;2.50;;
17864;SDS011;9058;52.018;4.202;2023-06-14T07:00:47;6.45;;;2.85;;
17864;SDS011;9058;52.018;4.202;2023-06-14T07:03:13;3.38;;;2.42;;
17864;SDS011;9058;52.018;4.202;2023-06-14T07:05:40;6.10;;;2.80;;
17864;SDS011;9058;52.018;4.202;2023-06-14T07:08:07;4.65;;;2.85;;
17864;SDS011;9058;52.018;4.202;2023-06-14T07:10:34;5.47;;;2.60;;
17864;SDS011;9058;52.018;4.202;2023-06-14T07:13:00;9.52;;;2.92;;
17864;SDS011;9058;52.018;4.202;2023-06-14T07:15:26;4.80;;;2.90;;
17864;SDS011;9058;52.018;4.202;2023-06-14T07:17:53;5.03;;;2.58;;
17864;SDS011;9058;52.018;4.202;2023-06-14T07:20:24;4.97;;;2.50;;
17864;SDS011;9058;52.018;4.202;2023-06-14T07:22:51;5.07;;;2.80;;
17864;SDS011;9058;52.018;4.202;2023-06-14T07:25:18;4.93;;;2.88;;
17864;SDS011;9058;52.018;4.202;2023-06-14T07:27:45;7.20;;;2.90;;
17864;SDS011;9058;52.018;4.202;2023-06-14T07:30:12;6.97;;;3.45;;
17864;SDS011;9058;52.018;4.202;2023-06-14T07:32:39;4.65;;;2.60;;
17864;SDS011;9058;52.018;4.202;2023-06-14T07:35:05;4.82;;;2.78;;
17864;SDS011;9058;52.018;4.202;2023-06-14T07:37:31;9.25;;;2.70;;
17864;SDS011;9058;52.018;4.202;2023-06-14T07:39:58;5.72;;;3.10;;
17864;SDS011;9058;52.018;4.202;2023-06-14T07:42:25;5.30;;;2.92;;
17864;SDS011;9058;52.018;4.202;2023-06-14T07:44:52;8.88;;;2.85;;
17864;SDS011;9058;52.018;4.202;2023-06-14T07:47:18;5.45;;;2.80;;
17864;SDS011;9058;52.018;4.202;2023-06-14T07:49:45;4.30;;;3.42;;
17864;SDS011;9058;52.018;4.202;2023-06-14T07:52:11;7.13;;;3.00;;
17864;SDS011;9058;52.018;4.202;2023-06-14T07:54:38;7.80;;;3.22;;
17864;SDS011;9058;52.018;4.202;2023-06-14T07:57:06;5.28;;;2.95;;
17864;SDS011;9058;52.018;4.202;2023-06-14T07:59:33;4.88;;;3.00;;
17864;SDS011;9058;52.018;4.202;2023-06-14T08:02:00;5.93;;;3.03;;
17864;SDS011;9058;52.018;4.202;2023-06-14T08:04:27;5.57;;;2.95;;
17864;SDS011;9058;52.018;4.202;2023-06-14T08:06:53;7.20;;;3.08;;
17864;SDS011;9058;52.018;4.202;2023-06-14T08:09:19;6.50;;;3.25;;
17864;SDS011;9058;52.018;4.202;2023-06-14T08:11:46;5.80;;;2.80;;
17864;SDS011;9058;52.018;4.202;2023-06-14T08:14:12;8.63;;;3.08;;
17864;SDS011;9058;52.018;4.202;2023-06-14T08:16:40;9.07;;;3.25;;
17864;SDS011;9058;52.018;4.202;2023-06-14T08:19:06;7.03;;;3.38;;
17864;SDS011;9058;52.018;4.202;2023-06-14T08:21:33;4.00;;;3.28;;
17864;SDS011;9058;52.018;4.202;2023-06-14T08:24:01;8.43;;;3.17;;
17864;SDS011;9058;52.018;4.202;2023-06-14T08:26:29;8.27;;;3.35;;
17864;SDS011;9058;52.018;4.202;2023-06-14T08:28:58;8.95;;;3.40;;
17864;SDS011;9058;52.018;4.202;2023-06-14T08:31:24;5.53;;;3.15;;
17864;SDS011;9058;52.018;4.202;2023-06-14T08:33:53;7.07;;;3.53;;
17864;SDS011;9058;52.018;4.202;2023-06-14T08:36:20;5.32;;;4.03;;
17864;SDS011;9058;52.018;4.202;2023-06-14T08:38:47;6.68;;;4.05;;
17864;SDS011;9058;52.018;4.202;2023-06-14T08:41:16;5.85;;;3.28;;
17864;SDS011;9058;52.018;4.202;2023-06-14T08:43:46;7.70;;;3.60;;
17864;SDS011;9058;52.018;4.202;2023-06-14T08:46:13;10.43;;;2.85;;
17864;SDS011;9058;52.018;4.202;2023-06-14T08:48:43;5.15;;;3.42;;
17864;SDS011;9058;52.018;4.202;2023-06-14T08:51:11;6.35;;;3.35;;
17864;SDS011;9058;52.018;4.202;2023-06-14T08:53:41;4.75;;;3.63;;
17864;SDS011;9058;52.018;4.202;2023-06-14T08:56:08;8.95;;;3.30;;
17864;SDS011;9058;52.018;4.202;2023-06-14T08:58:38;6.25;;;4.05;;
17864;SDS011;9058;52.018;4.202;2023-06-14T09:01:08;7.13;;;3.25;;
17864;SDS011;9058;52.018;4.202;2023-06-14T09:03:37;6.90;;;3.33;;
17864;SDS011;9058;52.018;4.202;2023-06-14T09:06:05;5.10;;;3.05;;
17864;SDS011;9058;52.018;4.202;2023-06-14T09:08:35;6.13;;;3.05;;
17864;SDS011;9058;52.018;4.202;2023-06-14T09:11:02;7.07;;;2.75;;
17864;SDS011;9058;52.018;4.202;2023-06-14T09:13:28;9.05;;;3.03;;
17864;SDS011;9058;52.018;4.202;2023-06-14T09:15:55;6.68;;;3.10;;
17864;SDS011;9058;52.018;4.202;2023-06-14T09:18:21;5.70;;;2.95;;
17864;SDS011;9058;52.018;4.202;2023-06-14T09:20:48;5.60;;;2.97;;
17864;SDS011;9058;52.018;4.202;2023-06-14T09:23:14;5.60;;;2.85;;
17864;SDS011;9058;52.018;4.202;2023-06-14T09:25:47;8.18;;;2.90;;
17864;SDS011;9058;52.018;4.202;2023-06-14T09:28:14;4.05;;;2.90;;
17864;SDS011;9058;52.018;4.202;2023-06-14T09:30:40;6.28;;;2.90;;
17864;SDS011;9058;52.018;4.202;2023-06-14T09:33:06;5.85;;;2.85;;
17864;SDS011;9058;52.018;4.202;2023-06-14T09:35:35;4.93;;;3.15;;
17864;SDS011;9058;52.018;4.202;2023-06-14T09:38:02;6.00;;;2.85;;
17864;SDS011;9058;52.018;4.202;2023-06-14T09:40:28;7.15;;;3.25;;
17864;SDS011;9058;52.018;4.202;2023-06-14T09:43:02;6.85;;;3.70;;
17864;SDS011;9058;52.018;4.202;2023-06-14T09:45:28;6.32;;;2.85;;
17864;SDS011;9058;52.018;4.202;2023-06-14T09:47:56;4.90;;;3.30;;
17864;SDS011;9058;52.018;4.202;2023-06-14T09:50:23;5.45;;;2.97;;
17864;SDS011;9058;52.018;4.202;2023-06-14T09:52:50;6.72;;;3.33;;
17864;SDS011;9058;52.018;4.202;2023-06-14T09:55:19;4.78;;;2.85;;
17864;SDS011;9058;52.018;4.202;2023-06-14T09:57:45;4.65;;;2.60;;
17864;SDS011;9058;52.018;4.202;2023-06-14T10:00:15;3.67;;;2.90;;
17864;SDS011;9058;52.018;4.202;2023-06-14T10:02:43;5.95;;;2.67;;
17864;SDS011;9058;52.018;4.202;2023-06-14T10:05:15;4.30;;;2.83;;
17864;SDS011;9058;52.018;4.202;2023-06-14T10:07:48;5.50;;;2.80;;
17864;SDS011;9058;52.018;4.202;2023-06-14T10:10:14;4.30;;;2.90;;
17864;SDS011;9058;52.018;4.202;2023-06-14T10:12:41;6.18;;;2.70;;
17864;SDS011;9058;52.018;4.202;2023-06-14T10:15:08;3.78;;;2.45;;
17864;SDS011;9058;52.018;4.202;2023-06-14T10:17:37;4.82;;;2.67;;
17864;SDS011;9058;52.018;4.202;2023-06-14T10:20:13;5.93;;;2.97;;
17864;SDS011;9058;52.018;4.202;2023-06-14T10:22:43;4.28;;;3.00;;
17864;SDS011;9058;52.018;4.202;2023-06-14T10:25:12;3.92;;;2.08;;
17864;SDS011;9058;52.018;4.202;2023-06-14T10:27:41;5.90;;;2.50;;
17864;SDS011;9058;52.018;4.202;2023-06-14T10:30:11;4.15;;;2.60;;
17864;SDS011;9058;52.018;4.202;2023-06-14T10:35:23;5.70;;;2.70;;
17864;SDS011;9058;52.018;4.202;2023-06-14T10:37:50;6.00;;;2.58;;
17864;SDS011;9058;52.018;4.202;2023-06-14T10:40:29;5.78;;;2.50;;
17864;SDS011;9058;52.018;4.202;2023-06-14T10:42:56;6.13;;;2.25;;
17864;SDS011;9058;52.018;4.202;2023-06-14T10:45:22;5.05;;;2.28;;
17864;SDS011;9058;52.018;4.202;2023-06-14T10:47:49;5.40;;;2.22;;
17864;SDS011;9058;52.018;4.202;2023-06-14T10:50:17;4.93;;;2.58;;
17864;SDS011;9058;52.018;4.202;2023-06-14T10:52:46;4.60;;;2.20;;
17864;SDS011;9058;52.018;4.202;2023-06-14T10:55:12;6.03;;;2.17;;
17864;SDS011;9058;52.018;4.202;2023-06-14T10:57:41;6.70;;;2.22;;
17864;SDS011;9058;52.018;4.202;2023-06-14T11:00:08;7.22;;;2.60;;
17864;SDS011;9058;52.018;4.202;2023-06-14T11:02:51;2.35;;;2.00;;
17864;SDS011;9058;52.018;4.202;2023-06-14T11:05:21;5.57;;;2.03;;
17864;SDS011;9058;52.018;4.202;2023-06-14T11:07:55;3.80;;;2.15;;
17864;SDS011;9058;52.018;4.202;2023-06-14T11:10:26;5.95;;;2.10;;
17864;SDS011;9058;52.018;4.202;2023-06-14T11:12:59;3.75;;;2.15;;
17864;SDS011;9058;52.018;4.202;2023-06-14T11:15:27;4.63;;;2.22;;
17864;SDS011;9058;52.018;4.202;2023-06-14T11:17:54;3.33;;;2.13;;
17864;SDS011;9058;52.018;4.202;2023-06-14T11:20:24;2.83;;;2.00;;
17864;SDS011;9058;52.018;4.202;2023-06-14T11:22:51;4.50;;;2.28;;
17864;SDS011;9058;52.018;4.202;2023-06-14T11:25:19;3.80;;;2.28;;
17864;SDS011;9058;52.018;4.202;2023-06-14T11:27:46;1.95;;;1.65;;
17864;SDS011;9058;52.018;4.202;2023-06-14T11:30:15;3.15;;;1.95;;
17864;SDS011;9058;52.018;4.202;2023-06-14T11:32:41;4.15;;;2.13;;
17864;SDS011;9058;52.018;4.202;2023-06-14T11:35:08;3.03;;;2.10;;
17864;SDS011;9058;52.018;4.202;2023-06-14T11:37:35;5.35;;;1.80;;
17864;SDS011;9058;52.018;4.202;2023-06-14T11:40:02;5.43;;;2.50;;
17864;SDS011;9058;52.018;4.202;2023-06-14T11:42:32;4.60;;;1.92;;
17864;SDS011;9058;52.018;4.202;2023-06-14T11:44:59;4.90;;;2.00;;
17864;SDS011;9058;52.018;4.202;2023-06-14T11:47:30;3.10;;;1.92;;
17864;SDS011;9058;52.018;4.202;2023-06-14T11:49:58;4.20;;;1.88;;
17864;SDS011;9058;52.018;4.202;2023-06-14T11:52:24;6.35;;;2.10;;
17864;SDS011;9058;52.018;4.202;2023-06-14T11:54:50;3.50;;;1.52;;
17864;SDS011;9058;52.018;4.202;2023-06-14T11:57:17;3.70;;;2.53;;
17864;SDS011;9058;52.018;4.202;2023-06-14T11:59:46;1.95;;;1.60;;
17864;SDS011;9058;52.018;4.202;2023-06-14T12:02:13;2.70;;;1.70;;
17864;SDS011;9058;52.018;4.202;2023-06-14T12:04:40;2.60;;;1.40;;
17864;SDS011;9058;52.018;4.202;2023-06-14T12:07:10;2.17;;;1.80;;
17864;SDS011;9058;52.018;4.202;2023-06-14T12:09:37;3.47;;;2.17;;
17864;SDS011;9058;52.018;4.202;2023-06-14T12:12:04;2.03;;;1.50;;
17864;SDS011;9058;52.018;4.202;2023-06-14T12:14:31;3.08;;;1.60;;
17864;SDS011;9058;52.018;4.202;2023-06-14T12:17:05;4.82;;;1.90;;
17864;SDS011;9058;52.018;4.202;2023-06-14T12:19:32;3.03;;;1.67;;
17864;SDS011;9058;52.018;4.202;2023-06-14T12:21:59;3.05;;;1.52;;
17864;SDS011;9058;52.018;4.202;2023-06-14T12:24:27;4.20;;;1.60;;
17864;SDS011;9058;52.018;4.202;2023-06-14T12:26:54;1.67;;;1.58;;
17864;SDS011;9058;52.018;4.202;2023-06-14T12:29:20;2.63;;;1.60;;
17864;SDS011;9058;52.018;4.202;2023-06-14T12:31:47;2.65;;;1.90;;
17864;SDS011;9058;52.018;4.202;2023-06-14T12:34:14;3.10;;;1.40;;
17864;SDS011;9058;52.018;4.202;2023-06-14T12:36:41;1.50;;;1.40;;
17864;SDS011;9058;52.018;4.202;2023-06-14T12:39:09;2.75;;;1.30;;
17864;SDS011;9058;52.018;4.202;2023-06-14T12:41:36;5.65;;;1.60;;
17864;SDS011;9058;52.018;4.202;2023-06-14T12:44:02;1.88;;;1.30;;
17864;SDS011;9058;52.018;4.202;2023-06-14T12:46:30;2.63;;;1.52;;
17864;SDS011;9058;52.018;4.202;2023-06-14T12:48:57;2.65;;;1.60;;
17864;SDS011;9058;52.018;4.202;2023-06-14T12:51:24;2.17;;;1.50;;
17864;SDS011;9058;52.018;4.202;2023-06-14T12:53:51;4.40;;;1.60;;
17864;SDS011;9058;52.018;4.202;2023-06-14T12:56:18;2.10;;;1.52;;
17864;SDS011;9058;52.018;4.202;2023-06-14T12:58:44;2.50;;;1.30;;
17864;SDS011;9058;52.018;4.202;2023-06-14T13:01:11;2.63;;;1.50;;
17864;SDS011;9058;52.018;4.202;2023-06-14T13:03:37;2.88;;;1.45;;
17864;SDS011;9058;52.018;4.202;2023-06-14T13:06:03;1.55;;;1.33;;
17864;SDS011;9058;52.018;4.202;2023-06-14T13:08:31;1.27;;;1.10;;
17864;SDS011;9058;52.018;4.202;2023-06-14T13:10:58;2.47;;;1.30;;
17864;SDS011;9058;52.018;4.202;2023-06-14T13:13:24;2.08;;;1.50;;
17864;SDS011;9058;52.018;4.202;2023-06-14T13:15:50;4.25;;;1.55;;
17864;SDS011;9058;52.018;4.202;2023-06-14T13:18:17;2.15;;;1.17;;
17864;SDS011;9058;52.018;4.202;2023-06-14T13:20:45;1.55;;;1.38;;
17864;SDS011;9058;52.018;4.202;2023-06-14T13:23:14;1.88;;;1.23;;
17864;SDS011;9058;52.018;4.202;2023-06-14T13:25:43;2.45;;;1.50;;
17864;SDS011;9058;52.018;4.202;2023-06-14T13:28:09;3.20;;;1.60;;
17864;SDS011;9058;52.018;4.202;2023-06-14T13:30:35;2.17;;;1.40;;
17864;SDS011;9058;52.018;4.202;2023-06-14T13:33:04;4.50;;;1.42;;
17864;SDS011;9058;52.018;4.202;2023-06-14T13:35:31;1.38;;;1.27;;
17864;SDS011;9058;52.018;4.202;2023-06-14T13:37:57;3.22;;;1.30;;
17864;SDS011;9058;52.018;4.202;2023-06-14T13:40:23;2.22;;;1.40;;
17864;SDS011;9058;52.018;4.202;2023-06-14T13:42:51;2.50;;;1.58;;
17864;SDS011;9058;52.018;4.202;2023-06-14T13:45:17;5.53;;;1.48;;
17864;SDS011;9058;52.018;4.202;2023-06-14T13:47:44;4.80;;;1.80;;
17864;SDS011;9058;52.018;4.202;2023-06-14T13:50:13;2.65;;;1.70;;
17864;SDS011;9058;52.018;4.202;2023-06-14T13:52:41;4.43;;;1.73;;
17864;SDS011;9058;52.018;4.202;2023-06-14T13:55:07;5.88;;;1.70;;
17864;SDS011;9058;52.018;4.202;2023-06-14T13:57:34;2.55;;;1.60;;
17864;SDS011;9058;52.018;4.202;2023-06-14T14:00:02;4.25;;;1.60;;
17864;SDS011;9058;52.018;4.202;2023-06-14T14:02:31;4.40;;;1.65;;
17864;SDS011;9058;52.018;4.202;2023-06-14T14:04:57;5.85;;;1.60;;
17864;SDS011;9058;52.018;4.202;2023-06-14T14:07:24;1.98;;;1.35;;
17864;SDS011;9058;52.018;4.202;2023-06-14T14:09:50;4.53;;;1.75;;
17864;SDS011;9058;52.018;4.202;2023-06-14T14:12:18;2.22;;;1.75;;
17864;SDS011;9058;52.018;4.202;2023-06-14T14:14:44;4.90;;;1.90;;
17864;SDS011;9058;52.018;4.202;2023-06-14T14:17:12;4.20;;;1.55;;
17864;SDS011;9058;52.018;4.202;2023-06-14T14:19:39;3.00;;;1.55;;
17864;SDS011;9058;52.018;4.202;2023-06-14T14:22:05;1.98;;;1.40;;
17864;SDS011;9058;52.018;4.202;2023-06-14T14:24:31;2.95;;;1.60;;
17864;SDS011;9058;52.018;4.202;2023-06-14T14:26:58;3.25;;;1.73;;
17864;SDS011;9058;52.018;4.202;2023-06-14T14:29:25;2.22;;;1.58;;
17864;SDS011;9058;52.018;4.202;2023-06-14T14:31:54;2.30;;;1.50;;
17864;SDS011;9058;52.018;4.202;2023-06-14T14:34:23;3.42;;;1.75;;
17864;SDS011;9058;52.018;4.202;2023-06-14T14:36:50;3.50;;;1.60;;
17864;SDS011;9058;52.018;4.202;2023-06-14T14:39:16;3.22;;;1.38;;
17864;SDS011;9058;52.018;4.202;2023-06-14T14:41:43;4.10;;;1.70;;
17864;SDS011;9058;52.018;4.202;2023-06-14T14:44:09;2.15;;;1.70;;
17864;SDS011;9058;52.018;4.202;2023-06-14T14:46:35;3.33;;;1.45;;
17864;SDS011;9058;52.018;4.202;2023-06-14T14:49:02;2.53;;;1.50;;
17864;SDS011;9058;52.018;4.202;2023-06-14T14:51:30;2.45;;;1.40;;
17864;SDS011;9058;52.018;4.202;2023-06-14T14:53:56;3.65;;;1.58;;
17864;SDS011;9058;52.018;4.202;2023-06-14T14:56:23;2.97;;;1.63;;
17864;SDS011;9058;52.018;4.202;2023-06-14T14:58:50;6.45;;;2.25;;
17864;SDS011;9058;52.018;4.202;2023-06-14T15:01:18;2.75;;;1.83;;
17864;SDS011;9058;52.018;4.202;2023-06-14T15:03:44;3.28;;;1.70;;